createdAt,value
2022-11-29T00:01:42.319Z,101173.02
2022-11-29T00:04:11.304Z,101172.82
2022-11-29T00:06:39.897Z,101178.20
2022-11-29T00:09:11.931Z,101178.84
2022-11-29T00:11:59.733Z,101181.64
2022-11-29T00:14:29.015Z,101186.52
2022-11-29T00:17:02.191Z,101187.47
2022-11-29T00:19:35.426Z,101190.61
2022-11-29T00:22:04.522Z,101188.83
2022-11-29T00:24:34.625Z,101192.08
2022-11-29T00:27:04.418Z,101188.67
2022-11-29T00:29:34.123Z,101189.00
2022-11-29T00:32:04.089Z,101187.58
2022-11-29T00:34:33.957Z,101193.02
2022-11-29T00:37:04.087Z,101192.50
2022-11-29T00:39:33.801Z,101196.45
2022-11-29T00:42:03.847Z,101194.60
2022-11-29T00:44:33.650Z,101189.41
2022-11-29T00:47:03.439Z,101189.68
2022-11-29T00:49:33.231Z,101189.19
2022-11-29T00:52:03.756Z,101190.21
2022-11-29T00:54:33.597Z,101191.44
2022-11-29T00:57:03.515Z,101189.45
2022-11-29T00:59:33.283Z,101186.27
2022-11-29T01:02:03.103Z,101184.94
2022-11-29T01:04:33.024Z,101186.19
2022-11-29T01:07:02.851Z,101184.75
2022-11-29T01:09:32.716Z,101185.28
2022-11-29T01:12:02.541Z,101185.30
2022-11-29T01:14:32.432Z,101185.81
2022-11-29T01:17:02.238Z,101189.98
2022-11-29T01:19:32.054Z,101188.13
2022-11-29T01:22:01.863Z,101187.80
2022-11-29T01:24:31.829Z,101190.06
2022-11-29T01:27:01.541Z,101191.80
2022-11-29T01:29:31.354Z,101190.90
2022-11-29T01:32:01.122Z,101194.17
2022-11-29T01:34:30.801Z,101191.05
2022-11-29T01:37:00.576Z,101194.13
2022-11-29T01:39:30.592Z,101198.44
2022-11-29T01:42:01.018Z,101195.14
2022-11-29T01:44:30.726Z,101189.63
2022-11-29T01:47:00.457Z,101188.75
2022-11-29T01:49:40.597Z,101186.52
2022-11-29T01:52:26.083Z,101185.13
2022-11-29T01:55:03.993Z,101184.91
2022-11-29T01:57:35.516Z,101181.91
2022-11-29T02:00:14.652Z,101178.73
2022-11-29T02:03:10.374Z,101184.98
2022-11-29T02:05:43.088Z,101183.98
2022-11-29T02:08:16.463Z,101184.67
2022-11-29T02:11:07.392Z,101184.17
2022-11-29T02:13:44.719Z,101185.98
2022-11-29T02:16:37.607Z,101181.10
2022-11-29T02:19:30.813Z,101180.33
2022-11-29T02:22:37.844Z,101182.39
2022-11-29T02:25:56.721Z,101185.34
2022-11-29T02:29:03.027Z,101187.62
2022-11-29T02:32:23.992Z,101187.88
2022-11-29T02:35:15.226Z,101192.98
2022-11-29T02:38:35.126Z,101190.77
2022-11-29T02:41:53.863Z,101192.44
2022-11-29T02:44:59.019Z,101196.83
2022-11-29T02:47:49.120Z,101194.90
2022-11-29T02:50:43.954Z,101199.29
2022-11-29T02:53:40.537Z,101200.69
2022-11-29T02:56:46.732Z,101205.83
2022-11-29T02:59:39.202Z,101211.45
2022-11-29T03:02:49.440Z,101205.42
2022-11-29T03:05:56.159Z,101211.95
2022-11-29T03:08:36.831Z,101211.85
2022-11-29T03:11:39.396Z,101211.64
2022-11-29T03:14:24.496Z,101213.81
2022-11-29T03:17:00.618Z,101216.02
2022-11-29T03:20:01.030Z,101216.80
2022-11-29T03:23:25.707Z,101217.46
2022-11-29T03:26:17.352Z,101218.83
2022-11-29T03:29:36.266Z,101219.89
2022-11-29T03:32:28.488Z,101224.17
2022-11-29T03:35:13.291Z,101226.05
2022-11-29T03:38:01.320Z,101226.00
2022-11-29T03:41:23.221Z,101228.56
2022-11-29T03:44:17.790Z,101228.52
2022-11-29T03:46:58.522Z,101231.21
2022-11-29T03:49:40.907Z,101233.56
2022-11-29T03:52:22.088Z,101232.92
2022-11-29T03:55:32.208Z,101230.94
2022-11-29T03:58:07.921Z,101231.05
2022-11-29T04:01:21.629Z,101230.34
2022-11-29T04:04:09.846Z,101233.42
2022-11-29T04:06:56.689Z,101230.52
2022-11-29T04:10:06.913Z,101230.66
2022-11-29T04:13:13.839Z,101229.21
2022-11-29T04:16:20.327Z,101230.27
2022-11-29T04:19:23.159Z,101234.06
2022-11-29T04:22:20.807Z,101236.90
2022-11-29T04:25:39.573Z,101241.75
2022-11-29T04:28:46.584Z,101242.73
2022-11-29T04:32:04.948Z,101241.52
2022-11-29T04:35:24.237Z,101239.23
2022-11-29T04:38:11.068Z,101238.90
2022-11-29T04:41:00.687Z,101240.54
2022-11-29T04:44:04.293Z,101240.00
2022-11-29T04:47:01.820Z,101242.27
2022-11-29T04:49:59.988Z,101242.60
2022-11-29T04:52:59.588Z,101244.48
2022-11-29T04:55:55.280Z,101246.72
2022-11-29T04:59:06.627Z,101251.06
2022-11-29T05:01:43.414Z,101252.77
2022-11-29T05:04:59.100Z,101255.38
2022-11-29T05:07:44.421Z,101255.30
2022-11-29T05:10:35.366Z,101254.39
2022-11-29T05:13:14.230Z,101257.80
2022-11-29T05:16:07.025Z,101257.83
2022-11-29T05:19:25.290Z,101260.40
2022-11-29T05:22:39.275Z,101259.21
2022-11-29T05:25:34.326Z,101260.16
2022-11-29T05:28:51.782Z,101260.44
2022-11-29T05:31:41.477Z,101269.30
2022-11-29T05:34:55.692Z,101272.61
2022-11-29T05:37:40.463Z,101275.45
2022-11-29T05:41:07.985Z,101278.98
2022-11-29T05:44:13.513Z,101280.50
2022-11-29T05:47:04.619Z,101285.27
2022-11-29T05:50:08.815Z,101284.30
2022-11-29T05:52:57.349Z,101285.89
2022-11-29T05:55:51.351Z,101288.20
2022-11-29T05:58:48.742Z,101292.28
2022-11-29T06:01:42.662Z,101295.09
2022-11-29T06:04:35.686Z,101295.67
2022-11-29T06:07:31.934Z,101298.58
2022-11-29T06:10:17.688Z,101308.05
2022-11-29T06:13:34.380Z,101312.35
2022-11-29T06:16:28.676Z,101313.54
2022-11-29T06:19:17.262Z,101315.30
2022-11-29T06:22:30.060Z,101320.31
2022-11-29T06:25:24.111Z,101318.28
2022-11-29T06:28:39.334Z,101322.48
2022-11-29T06:31:23.674Z,101331.73
2022-11-29T06:34:16.263Z,101336.38
2022-11-29T06:37:04.873Z,101334.61
2022-11-29T06:39:34.998Z,101336.45
2022-11-29T06:42:06.291Z,101336.83
2022-11-29T06:44:36.644Z,101339.31
2022-11-29T06:47:28.620Z,101342.25
2022-11-29T06:50:25.970Z,101345.86
2022-11-29T06:53:36.232Z,101350.30
2022-11-29T06:56:44.991Z,101351.98
2022-11-29T06:59:40.548Z,101356.67
2022-11-29T07:02:55.546Z,101359.98
2022-11-29T07:05:35.306Z,101361.67
2022-11-29T07:08:22.026Z,101362.23
2022-11-29T07:10:55.474Z,101363.52
2022-11-29T07:13:25.754Z,101364.71
2022-11-29T07:16:22.498Z,101368.79
2022-11-29T07:19:20.620Z,101369.02
2022-11-29T07:22:23.524Z,101370.23
2022-11-29T07:25:16.594Z,101368.01
2022-11-29T07:28:24.372Z,101372.77
2022-11-29T07:31:14.684Z,101373.36
2022-11-29T07:34:22.149Z,101378.53
2022-11-29T07:37:27.645Z,101374.45
2022-11-29T07:40:13.682Z,101378.81
2022-11-29T07:43:39.964Z,101382.48
2022-11-29T07:46:09.663Z,101382.41
2022-11-29T07:48:39.403Z,101381.67
2022-11-29T07:51:09.474Z,101385.36
2022-11-29T07:53:43.998Z,101389.06
2022-11-29T07:56:16.160Z,101394.02
2022-11-29T07:58:45.075Z,101394.11
2022-11-29T08:01:13.875Z,101396.22
2022-11-29T08:03:42.456Z,101394.75
2022-11-29T08:06:10.767Z,101396.12
2022-11-29T08:08:43.761Z,101399.77
2022-11-29T08:11:14.160Z,101399.40
2022-11-29T08:13:42.237Z,101395.89
2022-11-29T08:16:15.104Z,101398.31
2022-11-29T08:18:45.316Z,101403.96
2022-11-29T08:21:18.361Z,101408.61
2022-11-29T08:23:50.771Z,101412.38
2022-11-29T08:26:20.646Z,101414.08
2022-11-29T08:28:52.131Z,101412.54
2022-11-29T08:31:21.480Z,101413.30
2022-11-29T08:33:51.351Z,101415.39
2022-11-29T08:36:21.651Z,101421.48
2022-11-29T08:38:52.839Z,101421.47
2022-11-29T08:41:26.926Z,101421.80
2022-11-29T08:43:57.001Z,101418.33
2022-11-29T08:46:46.756Z,101419.46
2022-11-29T08:49:16.949Z,101420.70
2022-11-29T08:51:46.709Z,101419.15
2022-11-29T08:54:16.448Z,101415.60
2022-11-29T08:59:36.129Z,101416.73
2022-11-29T09:02:05.897Z,101418.04
2022-11-29T09:04:35.685Z,101417.64
2022-11-29T09:07:05.411Z,101421.09
2022-11-29T09:09:35.115Z,101420.09
2022-11-29T09:12:09.902Z,101423.77
2022-11-29T09:14:39.827Z,101424.59
2022-11-29T09:17:08.009Z,101425.30
2022-11-29T09:19:36.420Z,101431.13
2022-11-29T09:22:04.936Z,101433.85
2022-11-29T09:24:34.549Z,101437.10
2022-11-29T09:27:01.709Z,101435.74
2022-11-29T09:29:30.151Z,101437.37
2022-11-29T09:31:58.570Z,101433.16
2022-11-29T09:34:26.941Z,101433.48
2022-11-29T09:36:55.499Z,101439.00
2022-11-29T09:39:22.426Z,101434.10
2022-11-29T09:42:32.832Z,101434.70
2022-11-29T09:45:16.627Z,101439.80
2022-11-29T09:48:37.921Z,101440.73
2022-11-29T09:51:27.970Z,101440.17
2022-11-29T09:54:44.918Z,101443.07
2022-11-29T09:57:17.525Z,101441.36
2022-11-29T09:59:55.092Z,101437.63
2022-11-29T10:02:45.445Z,101436.40
2022-11-29T10:05:43.076Z,101440.16
2022-11-29T10:08:22.310Z,101447.56
2022-11-29T10:11:04.944Z,101449.71
2022-11-29T10:13:36.305Z,101452.96
2022-11-29T10:16:50.909Z,101450.84
2022-11-29T10:19:35.169Z,101450.04
2022-11-29T10:22:36.583Z,101452.53
2022-11-29T10:25:10.509Z,101451.77
2022-11-29T10:27:40.893Z,101450.52
2022-11-29T10:30:16.019Z,101457.31
2022-11-29T10:32:52.052Z,101459.59
2022-11-29T10:35:23.161Z,101456.36
2022-11-29T10:38:29.227Z,101458.02
2022-11-29T10:41:06.564Z,101457.45
2022-11-29T10:43:37.737Z,101456.30
2022-11-29T10:46:23.376Z,101460.30
2022-11-29T10:48:54.073Z,101455.84
2022-11-29T10:51:24.662Z,101463.02
2022-11-29T10:53:56.089Z,101462.32
2022-11-29T10:56:35.475Z,101463.52
2022-11-29T10:59:09.162Z,101461.19
2022-11-29T11:01:43.726Z,101459.84
2022-11-29T11:04:43.097Z,101464.77
2022-11-29T11:07:35.894Z,101463.22
2022-11-29T11:10:26.793Z,101462.35
2022-11-29T11:13:20.551Z,101463.44
2022-11-29T11:15:48.087Z,101465.91
2022-11-29T11:18:26.571Z,101464.98
2022-11-29T11:21:01.961Z,101465.11
2022-11-29T11:23:42.378Z,101465.37
2022-11-29T11:26:15.129Z,101462.42
2022-11-29T11:29:02.298Z,101462.25
2022-11-29T11:31:37.940Z,101459.14
2022-11-29T11:34:26.256Z,101462.86
2022-11-29T11:37:35.742Z,101467.72
2022-11-29T11:40:28.836Z,101466.73
2022-11-29T11:43:01.986Z,101469.58
2022-11-29T11:45:36.480Z,101473.23
2022-11-29T11:48:16.163Z,101471.83
2022-11-29T11:50:54.319Z,101467.78
2022-11-29T11:53:38.613Z,101472.14
2022-11-29T11:56:13.574Z,101476.91
2022-11-29T11:58:57.757Z,101475.39
2022-11-29T12:01:37.966Z,101477.89
2022-11-29T12:04:38.230Z,101475.38
2022-11-29T12:07:59.362Z,101475.78
2022-11-29T12:10:27.124Z,101477.13
2022-11-29T12:12:58.807Z,101477.52
2022-11-29T12:15:40.921Z,101475.72
2022-11-29T12:18:21.006Z,101480.74
2022-11-29T12:21:27.966Z,101483.90
2022-11-29T12:24:23.686Z,101481.27
2022-11-29T12:26:59.076Z,101480.61
2022-11-29T12:29:33.712Z,101484.98
2022-11-29T12:32:31.488Z,101482.80
2022-11-29T12:35:37.360Z,101486.64
2022-11-29T12:38:52.065Z,101492.00
2022-11-29T12:41:40.351Z,101495.16
2022-11-29T12:44:47.420Z,101496.80
2022-11-29T12:47:56.304Z,101501.73
2022-11-29T12:51:05.111Z,101499.06
2022-11-29T12:54:12.078Z,101509.93
2022-11-29T12:56:54.624Z,101511.92
2022-11-29T13:00:00.711Z,101515.55
2022-11-29T13:02:40.234Z,101514.92
2022-11-29T13:05:19.075Z,101518.50
2022-11-29T13:08:18.744Z,101519.38
2022-11-29T13:10:54.352Z,101525.64
2022-11-29T13:13:41.062Z,101527.86
2022-11-29T13:16:46.897Z,101523.74
2022-11-29T13:20:01.659Z,101526.91
2022-11-29T13:22:51.721Z,101527.48
2022-11-29T13:25:30.175Z,101525.60
2022-11-29T13:28:30.126Z,101526.54
2022-11-29T13:31:06.348Z,101524.39
2022-11-29T13:33:57.449Z,101525.40
2022-11-29T13:37:14.861Z,101530.67
2022-11-29T13:40:23.503Z,101529.89
2022-11-29T13:43:35.796Z,101529.90
2022-11-29T13:46:44.257Z,101533.04
2022-11-29T13:49:54.992Z,101534.58
2022-11-29T13:52:36.930Z,101535.94
2022-11-29T13:55:28.753Z,101538.71
2022-11-29T13:58:18.420Z,101542.02
2022-11-29T14:00:52.088Z,101539.77
2022-11-29T14:03:32.355Z,101546.49
2022-11-29T14:06:01.967Z,101546.06
2022-11-29T14:09:21.681Z,101546.96
2022-11-29T14:12:39.429Z,101549.75
2022-11-29T14:15:31.920Z,101549.16
2022-11-29T14:18:08.201Z,101552.27
2022-11-29T14:20:41.170Z,101551.84
2022-11-29T14:23:31.316Z,101555.14
2022-11-29T14:26:00.942Z,101555.90
2022-11-29T14:28:36.084Z,101557.29
2022-11-29T14:31:08.190Z,101560.64
2022-11-29T14:33:46.972Z,101561.66
2022-11-29T14:36:32.639Z,101565.52
2022-11-29T14:39:34.140Z,101560.35
2022-11-29T14:42:20.285Z,101560.06
2022-11-29T14:45:06.229Z,101560.22
2022-11-29T14:47:38.896Z,101565.90
2022-11-29T14:50:31.671Z,101567.05
2022-11-29T14:53:04.805Z,101568.05
2022-11-29T14:55:38.890Z,101570.21
2022-11-29T14:58:20.479Z,101573.27
2022-11-29T15:00:50.057Z,101573.56
2022-11-29T15:03:38.722Z,101572.91
2022-11-29T15:06:17.795Z,101577.55
2022-11-29T15:09:17.041Z,101579.61
2022-11-29T15:12:02.216Z,101585.37
2022-11-29T15:15:10.030Z,101587.31
2022-11-29T15:18:18.039Z,101587.81
2022-11-29T15:21:02.880Z,101589.72
2022-11-29T15:23:42.631Z,101593.17
2022-11-29T15:26:21.560Z,101589.52
2022-11-29T15:28:49.452Z,101591.13
2022-11-29T15:31:20.918Z,101598.96
2022-11-29T15:33:51.429Z,101601.05
2022-11-29T15:36:24.326Z,101605.55
2022-11-29T15:38:57.353Z,101607.25
2022-11-29T15:41:35.572Z,101607.21
2022-11-29T15:44:19.215Z,101610.67
2022-11-29T15:46:48.971Z,101607.01
2022-11-29T15:49:27.081Z,101607.54
2022-11-29T15:52:14.470Z,101607.44
2022-11-29T15:54:59.128Z,101611.79
2022-11-29T15:57:35.179Z,101613.41
2022-11-29T16:00:16.644Z,101620.64
2022-11-29T16:03:00.543Z,101622.89
2022-11-29T16:05:37.663Z,101629.18
2022-11-29T16:08:16.464Z,101629.48
2022-11-29T16:10:52.993Z,101634.92
2022-11-29T16:13:31.146Z,101635.13
2022-11-29T16:16:23.099Z,101639.00
2022-11-29T16:18:52.906Z,101642.45
2022-11-29T16:21:30.120Z,101646.85
2022-11-29T16:24:13.980Z,101648.03
2022-11-29T16:26:46.488Z,101651.74
2022-11-29T16:29:36.105Z,101651.83
2022-11-29T16:32:20.819Z,101652.02
2022-11-29T16:34:51.060Z,101651.52
2022-11-29T16:37:25.362Z,101654.90
2022-11-29T16:40:01.982Z,101656.71
2022-11-29T16:42:33.588Z,101657.50
2022-11-29T16:45:27.323Z,101660.10
2022-11-29T16:47:58.866Z,101660.98
2022-11-29T16:50:33.319Z,101661.10
2022-11-29T16:53:37.500Z,101666.48
2022-11-29T16:56:20.989Z,101665.44
2022-11-29T16:59:24.646Z,101662.85
2022-11-29T17:01:56.129Z,101667.73
2022-11-29T17:04:26.589Z,101669.64
2022-11-29T17:06:57.530Z,101669.05
2022-11-29T17:09:32.462Z,101672.79
2022-11-29T17:12:02.839Z,101674.20
2022-11-29T17:14:31.712Z,101677.23
2022-11-29T17:17:02.271Z,101674.66
2022-11-29T17:19:32.259Z,101675.73
2022-11-29T17:22:01.998Z,101676.17
2022-11-29T17:24:31.886Z,101678.48
2022-11-29T17:27:01.630Z,101679.41
2022-11-29T17:29:31.451Z,101682.11
2022-11-29T17:32:01.471Z,101681.73
2022-11-29T17:34:31.649Z,101682.55
2022-11-29T17:37:01.406Z,101681.30
2022-11-29T17:39:31.989Z,101680.68
2022-11-29T17:42:01.792Z,101685.55
2022-11-29T17:44:33.891Z,101683.92
2022-11-29T17:47:03.605Z,101688.65
2022-11-29T17:49:33.313Z,101688.54
2022-11-29T17:52:03.625Z,101689.52
2022-11-29T17:54:33.467Z,101689.02
2022-11-29T17:57:03.897Z,101694.17
2022-11-29T17:59:33.278Z,101693.77
2022-11-29T18:02:03.899Z,101694.61
2022-11-29T18:04:32.828Z,101694.40
2022-11-29T18:07:01.617Z,101693.54
2022-11-29T18:09:30.294Z,101695.65
2022-11-29T18:11:58.874Z,101697.28
2022-11-29T18:14:30.929Z,101700.89
2022-11-29T18:17:00.712Z,101703.36
2022-11-29T18:19:31.450Z,101703.77
2022-11-29T18:22:02.880Z,101706.72
2022-11-29T18:24:32.617Z,101713.61
2022-11-29T18:27:02.377Z,101713.51
2022-11-29T18:29:38.223Z,101713.91
2022-11-29T18:32:08.786Z,101715.30
2022-11-29T18:34:38.606Z,101716.71
2022-11-29T18:37:12.423Z,101718.16
2022-11-29T18:39:45.550Z,101719.77
2022-11-29T18:42:16.008Z,101717.14
2022-11-29T18:44:46.213Z,101720.66
2022-11-29T18:47:16.184Z,101723.45
2022-11-29T18:49:45.987Z,101729.03
2022-11-29T18:52:15.770Z,101730.98
2022-11-29T18:54:45.821Z,101729.59
2022-11-29T18:57:15.619Z,101726.66
2022-11-29T18:59:45.441Z,101729.29
2022-11-29T19:02:19.870Z,101727.73
2022-11-29T19:04:50.161Z,101727.16
2022-11-29T19:07:20.247Z,101726.14
2022-11-29T19:09:50.004Z,101731.89
2022-11-29T19:12:20.415Z,101731.76
2022-11-29T19:14:50.389Z,101725.73
2022-11-29T19:17:20.193Z,101729.73
2022-11-29T19:19:49.975Z,101731.99
2022-11-29T19:22:19.700Z,101729.95
2022-11-29T19:24:49.902Z,101733.27
2022-11-29T19:27:21.194Z,101734.70
2022-11-29T19:29:51.194Z,101733.30
2022-11-29T19:32:20.996Z,101736.10
2022-11-29T19:34:50.889Z,101736.86
2022-11-29T19:37:20.569Z,101734.67
2022-11-29T19:39:50.426Z,101732.31
2022-11-29T19:42:22.494Z,101736.73
2022-11-29T19:45:15.909Z,101735.55
2022-11-29T19:47:43.102Z,101736.12
2022-11-29T19:50:11.628Z,101733.77
2022-11-29T19:52:40.052Z,101735.00
2022-11-29T19:55:09.024Z,101736.70
2022-11-29T19:57:37.098Z,101736.30
2022-11-29T20:00:08.055Z,101740.31
2022-11-29T20:02:37.893Z,101739.27
2022-11-29T20:05:08.418Z,101742.58
2022-11-29T20:07:38.320Z,101746.41
2022-11-29T20:10:09.051Z,101748.63
2022-11-29T20:12:38.766Z,101748.21
2022-11-29T20:15:08.859Z,101750.40
2022-11-29T20:17:38.627Z,101749.35
2022-11-29T20:20:09.949Z,101755.71
2022-11-29T20:22:40.676Z,101756.98
2022-11-29T20:25:12.306Z,101756.48
2022-11-29T20:27:42.176Z,101756.75
2022-11-29T20:30:13.506Z,101755.40
2022-11-29T20:32:43.655Z,101755.05
2022-11-29T20:35:14.520Z,101758.73
2022-11-29T20:38:32.558Z,101758.49
2022-11-29T20:41:21.894Z,101760.73
2022-11-29T20:43:59.905Z,101756.57
2022-11-29T20:46:30.399Z,101758.52
2022-11-29T20:49:06.126Z,101760.88
2022-11-29T20:51:55.536Z,101760.52
2022-11-29T20:54:25.361Z,101765.39
2022-11-29T20:56:53.698Z,101768.64
2022-11-29T20:59:22.222Z,101771.40
2022-11-29T21:01:50.608Z,101774.69
2022-11-29T21:04:23.318Z,101778.23
2022-11-29T21:06:54.119Z,101779.13
2022-11-29T21:09:24.034Z,101778.20
2022-11-29T21:11:54.102Z,101779.76
2022-11-29T21:14:25.727Z,101781.05
2022-11-29T21:16:55.958Z,101776.54
2022-11-29T21:19:26.874Z,101777.27
2022-11-29T21:22:19.875Z,101778.16
2022-11-29T21:25:05.244Z,101780.59
2022-11-29T21:27:36.011Z,101784.42
2022-11-29T21:30:06.300Z,101788.70
2022-11-29T21:32:35.685Z,101787.80
2022-11-29T21:35:06.087Z,101791.02
2022-11-29T21:37:37.482Z,101794.32
2022-11-29T21:40:09.487Z,101790.23
2022-11-29T21:42:39.276Z,101796.82
2022-11-29T21:45:15.144Z,101793.85
2022-11-29T21:47:46.455Z,101793.69
2022-11-29T21:50:16.427Z,101795.00
2022-11-29T21:52:46.241Z,101796.18
2022-11-29T21:55:16.124Z,101798.73
2022-11-29T21:57:45.829Z,101798.21
2022-11-29T22:00:16.525Z,101795.43
2022-11-29T22:02:46.477Z,101796.54
2022-11-29T22:05:16.459Z,101791.98
2022-11-29T22:07:46.275Z,101793.63
2022-11-29T22:10:15.999Z,101792.95
2022-11-29T22:12:51.810Z,101795.79
2022-11-29T22:15:24.990Z,101797.06
2022-11-29T22:17:56.319Z,101800.21
2022-11-29T22:20:26.010Z,101807.05
2022-11-29T22:22:58.691Z,101810.86
2022-11-29T22:25:27.281Z,101810.86
2022-11-29T22:27:55.577Z,101807.30
2022-11-29T22:30:24.074Z,101808.92
2022-11-29T22:32:52.522Z,101804.89
2022-11-29T22:35:20.893Z,101807.80
2022-11-29T22:37:49.306Z,101808.52
2022-11-29T22:40:18.123Z,101815.89
2022-11-29T22:42:46.053Z,101814.66
2022-11-29T22:45:14.577Z,101816.57
2022-11-29T22:47:42.921Z,101815.60
2022-11-29T22:50:12.105Z,101815.57
2022-11-29T22:52:39.723Z,101815.89
2022-11-29T22:55:09.001Z,101820.96
2022-11-29T22:57:36.884Z,101820.92
2022-11-29T23:00:06.249Z,101819.05
2022-11-29T23:02:33.492Z,101821.07
2022-11-29T23:05:01.798Z,101818.53
2022-11-29T23:07:30.337Z,101815.47
2022-11-29T23:09:58.671Z,101820.02
2022-11-29T23:12:27.465Z,101816.54
2022-11-29T23:14:56.834Z,101817.31
2022-11-29T23:17:23.930Z,101819.20
2022-11-29T23:19:52.429Z,101819.77
2022-11-29T23:22:20.884Z,101815.40
2022-11-29T23:24:49.209Z,101818.25
2022-11-29T23:27:17.648Z,101817.79
2022-11-29T23:29:46.120Z,101820.15
2022-11-29T23:32:14.514Z,101822.06
2022-11-29T23:34:42.877Z,101824.90
2022-11-29T23:37:11.281Z,101823.71
2022-11-29T23:39:39.757Z,101817.15
2022-11-29T23:42:10.182Z,101815.21
2022-11-29T23:44:40.068Z,101822.46
2022-11-29T23:47:09.812Z,101818.85
2022-11-29T23:49:39.809Z,101823.17
2022-11-29T23:52:09.520Z,101822.30
2022-11-29T23:54:39.315Z,101821.48
2022-11-29T23:57:09.142Z,101824.84
2022-11-29T23:59:38.907Z,101826.55
